createdAt,value
2019-02-07T00:00:27.267Z,7.6
2019-02-07T00:01:27.171Z,7.3
2019-02-07T00:02:27.287Z,7.1
2019-02-07T00:03:27.185Z,6.9
2019-02-07T00:04:27.260Z,6.8
2019-02-07T00:05:27.186Z,6.8
2019-02-07T00:06:27.171Z,7
2019-02-07T00:07:27.184Z,7.7
2019-02-07T00:08:27.247Z,8
2019-02-07T00:09:27.237Z,8.6
2019-02-07T00:10:27.185Z,9.3
2019-02-07T00:11:27.175Z,10
2019-02-07T00:12:27.172Z,10.6
2019-02-07T00:13:27.182Z,11.3
2019-02-07T00:14:27.243Z,11.6
2019-02-07T00:15:27.179Z,11.4
2019-02-07T00:16:27.180Z,11.1
2019-02-07T00:17:27.157Z,10.7
2019-02-07T00:18:27.243Z,10.4
2019-02-07T00:19:27.178Z,10
2019-02-07T00:20:27.250Z,9.9
2019-02-07T00:21:27.171Z,9.6
2019-02-07T00:22:27.174Z,9.4
2019-02-07T00:23:27.153Z,9
2019-02-07T00:24:27.167Z,8.4
2019-02-07T00:25:27.261Z,7.7
2019-02-07T00:26:27.168Z,7
2019-02-07T00:27:27.236Z,6.3
2019-02-07T00:28:27.159Z,5.7
2019-02-07T00:29:27.236Z,5.3
2019-02-07T00:30:27.174Z,4.9
2019-02-07T00:31:27.169Z,4.7
2019-02-07T00:32:27.165Z,4.5
2019-02-07T00:33:27.162Z,4.4
2019-02-07T00:34:27.218Z,4.4
2019-02-07T00:35:27.163Z,4.4
2019-02-07T00:36:27.166Z,4.5
2019-02-07T00:37:27.258Z,4.2
2019-02-07T00:38:27.172Z,4.1
2019-02-07T00:39:27.157Z,4
2019-02-07T00:40:27.150Z,4
2019-02-07T00:41:27.174Z,4
2019-02-07T00:42:27.222Z,4.1
2019-02-07T00:43:27.170Z,4
2019-02-07T00:44:27.225Z,3.9
2019-02-07T00:45:27.166Z,3.5
2019-02-07T00:46:27.162Z,3.2
2019-02-07T00:47:27.171Z,3
2019-02-07T00:48:27.178Z,3
2019-02-07T00:49:27.176Z,3
2019-02-07T00:50:27.152Z,3
2019-02-07T00:51:27.170Z,3
2019-02-07T00:52:27.178Z,3
2019-02-07T00:53:27.168Z,2.9
2019-02-07T00:54:27.155Z,2.8
2019-02-07T00:55:27.163Z,2.5
2019-02-07T00:56:27.156Z,2.3
2019-02-07T00:57:27.232Z,2.1
2019-02-07T00:58:27.183Z,2
2019-02-07T00:59:27.176Z,2
2019-02-07T01:00:27.224Z,2.1
2019-02-07T01:01:27.159Z,2.2
2019-02-07T01:02:27.169Z,2.3
2019-02-07T01:03:27.169Z,2.2
2019-02-07T01:04:27.233Z,2.1
2019-02-07T01:05:27.174Z,2
2019-02-07T01:06:27.140Z,1.9
2019-02-07T01:07:27.219Z,1.7
2019-02-07T01:08:27.170Z,1.5
2019-02-07T01:09:27.164Z,1.4
2019-02-07T01:10:27.157Z,1.3
2019-02-07T01:11:27.162Z,1.1
2019-02-07T01:12:27.205Z,1
2019-02-07T01:13:27.159Z,0.9
2019-02-07T01:14:27.165Z,0.9
2019-02-07T01:15:27.166Z,0.8
2019-02-07T01:16:27.233Z,0.7
2019-02-07T01:17:27.187Z,0.6
2019-02-07T01:18:27.187Z,0.6
2019-02-07T01:19:27.154Z,0.5
2019-02-07T01:20:27.232Z,0.5
2019-02-07T01:21:27.144Z,0.4
2019-02-07T01:22:27.220Z,0.4
2019-02-07T01:23:27.133Z,0.3
2019-02-07T01:24:27.165Z,0.3
2019-02-07T01:25:27.145Z,0.3
2019-02-07T01:26:27.164Z,0.3
2019-02-07T01:27:27.221Z,0.2
2019-02-07T01:28:27.146Z,0.2
2019-02-07T01:29:27.147Z,0.2
2019-02-07T01:30:27.137Z,0.2
2019-02-07T01:31:27.194Z,0.2
2019-02-07T01:32:27.140Z,0.1
2019-02-07T01:33:27.167Z,0.1
2019-02-07T01:34:27.127Z,0.1
2019-02-07T01:35:27.148Z,0.1
2019-02-07T01:36:27.212Z,0.1
2019-02-07T01:37:27.130Z,0.1
2019-02-07T01:38:27.136Z,0.1
2019-02-07T01:39:27.131Z,0.1
2019-02-07T01:40:27.154Z,0.1
2019-02-07T01:41:27.193Z,0.1
2019-02-07T01:42:27.164Z,0.1
2019-02-07T01:43:27.282Z,0
2019-02-07T01:44:27.278Z,0
2019-02-07T01:45:27.131Z,0
2019-02-07T01:46:27.132Z,0
2019-02-07T01:47:27.139Z,0
2019-02-07T01:48:27.130Z,0
2019-02-07T01:49:27.209Z,0
2019-02-07T01:50:27.129Z,0
2019-02-07T01:51:27.140Z,0.2
2019-02-07T01:52:27.140Z,0.5
2019-02-07T01:53:27.222Z,0.9
2019-02-07T01:54:27.221Z,1.3
2019-02-07T01:55:27.200Z,1.8
2019-02-07T01:56:27.137Z,2.4
2019-02-07T01:57:27.133Z,2.9
2019-02-07T01:58:27.281Z,3.5
2019-02-07T01:59:27.154Z,3.8
2019-02-07T02:00:27.133Z,3.6
2019-02-07T02:01:27.206Z,3.4
2019-02-07T02:02:27.147Z,3.1
2019-02-07T02:03:27.129Z,2.8
2019-02-07T02:04:27.124Z,2.6
2019-02-07T02:05:27.135Z,2.5
2019-02-07T02:06:27.123Z,2.5
2019-02-07T02:07:27.128Z,2.7
2019-02-07T02:08:27.144Z,3.2
2019-02-07T02:09:27.134Z,3.8
2019-02-07T02:10:27.124Z,4.2
2019-02-07T02:11:27.142Z,4.1
2019-02-07T02:12:27.106Z,3.8
2019-02-07T02:13:27.211Z,3.4
2019-02-07T02:14:27.143Z,3.1
2019-02-07T02:15:27.192Z,2.8
2019-02-07T02:16:27.115Z,2.6
2019-02-07T02:17:27.113Z,2.5
2019-02-07T02:18:27.188Z,2.4
2019-02-07T02:19:27.129Z,2.3
2019-02-07T02:20:27.192Z,2.5
2019-02-07T02:21:27.120Z,2.5
2019-02-07T02:22:27.216Z,2.5
2019-02-07T02:23:27.113Z,2.8
2019-02-07T02:24:27.144Z,2.5
2019-02-07T02:25:27.121Z,2.3
2019-02-07T02:26:27.197Z,2.1
2019-02-07T02:27:27.173Z,2
2019-02-07T02:28:27.164Z,1.8
2019-02-07T02:29:27.127Z,1.6
2019-02-07T02:30:27.190Z,1.4
2019-02-07T02:31:27.113Z,1.3
2019-02-07T02:32:27.157Z,1.2
2019-02-07T02:33:27.125Z,1.1
2019-02-07T02:34:27.092Z,1
2019-02-07T02:35:27.181Z,0.9
2019-02-07T02:36:27.116Z,0.8
2019-02-07T02:37:27.121Z,0.7
2019-02-07T02:38:27.113Z,0.6
2019-02-07T02:39:27.181Z,0.6
2019-02-07T02:40:27.141Z,0.5
2019-02-07T02:41:27.122Z,0.5
2019-02-07T02:42:27.111Z,0.5
2019-02-07T02:43:27.126Z,0.4
2019-02-07T02:44:27.161Z,0.4
2019-02-07T02:45:36.879Z,0.4
2019-02-07T02:46:27.112Z,0.3
2019-02-07T02:47:27.127Z,0.6
2019-02-07T02:48:27.110Z,0.6
2019-02-07T02:49:27.106Z,0.6
2019-02-07T02:50:27.091Z,0.6
2019-02-07T02:51:27.204Z,0.5
2019-02-07T02:52:27.101Z,0.6
2019-02-07T02:53:27.118Z,1
2019-02-07T02:54:27.114Z,1
2019-02-07T02:55:27.106Z,1
2019-02-07T02:56:27.154Z,1
2019-02-07T02:57:27.112Z,1
2019-02-07T02:58:27.180Z,0.9
2019-02-07T02:59:27.109Z,0.8
2019-02-07T03:00:27.093Z,0.8
2019-02-07T03:01:27.099Z,0.7
2019-02-07T03:02:27.113Z,0.6
2019-02-07T03:03:27.185Z,0.6
2019-02-07T03:04:27.105Z,0.6
2019-02-07T03:05:27.108Z,0.6
2019-02-07T03:06:27.170Z,0.6
2019-02-07T03:07:27.116Z,0.5
2019-02-07T03:08:27.124Z,0.5
2019-02-07T03:09:27.156Z,0.4
2019-02-07T03:10:27.100Z,0.4
2019-02-07T03:11:27.173Z,0.3
2019-02-07T03:12:27.091Z,0.3
2019-02-07T03:13:27.106Z,0.3
2019-02-07T03:14:27.095Z,0.2
2019-02-07T03:15:27.106Z,0.2
2019-02-07T03:16:27.183Z,0.2
2019-02-07T03:17:27.086Z,0.2
2019-02-07T03:18:27.110Z,0.2
2019-02-07T03:19:27.104Z,0.2
2019-02-07T03:20:27.189Z,0.1
2019-02-07T03:21:27.099Z,0.1
2019-02-07T03:22:27.113Z,0.1
2019-02-07T03:23:27.148Z,0.1
2019-02-07T03:24:27.105Z,0.1
2019-02-07T03:25:27.164Z,0.1
2019-02-07T03:26:27.117Z,0.1
2019-02-07T03:27:27.100Z,0.1
2019-02-07T03:28:27.157Z,0.1
2019-02-07T03:29:27.185Z,0.3
2019-02-07T03:30:27.092Z,0.3
2019-02-07T03:31:27.093Z,0.3
2019-02-07T03:32:27.162Z,0.3
2019-02-07T03:33:27.093Z,0.2
2019-02-07T03:34:27.077Z,0.2
2019-02-07T03:35:27.083Z,0.2
2019-02-07T03:36:27.163Z,0.2
2019-02-07T03:37:27.106Z,0.2
2019-02-07T03:38:27.083Z,0.1
2019-02-07T03:39:27.067Z,0.1
2019-02-07T03:40:27.085Z,0.1
2019-02-07T03:41:27.092Z,0.1
2019-02-07T03:42:27.095Z,0.1
2019-02-07T03:43:27.101Z,0.1
2019-02-07T03:44:27.073Z,0.1
2019-02-07T03:45:27.146Z,0.1
2019-02-07T03:46:27.089Z,0.1
2019-02-07T03:47:27.151Z,0.1
2019-02-07T03:48:27.092Z,0.3
2019-02-07T03:49:27.100Z,0.5
2019-02-07T03:50:27.076Z,0.6
2019-02-07T03:51:27.099Z,0.9
2019-02-07T03:52:27.155Z,1.2
2019-02-07T03:53:27.077Z,1.4
2019-02-07T03:54:27.141Z,1.5
2019-02-07T03:55:27.072Z,1.4
2019-02-07T03:56:27.086Z,1.5
2019-02-07T03:57:27.084Z,1.5
2019-02-07T03:58:27.180Z,1.3
2019-02-07T03:59:27.145Z,1.2
2019-02-07T04:00:27.075Z,1.1
2019-02-07T04:01:27.062Z,1
2019-02-07T04:02:27.206Z,0.9
2019-02-07T04:03:27.106Z,0.8
2019-02-07T04:04:27.154Z,0.7
2019-02-07T04:05:27.145Z,0.7
2019-02-07T04:06:27.056Z,0.6
2019-02-07T04:07:27.057Z,0.5
2019-02-07T04:08:27.148Z,0.5
2019-02-07T04:09:27.089Z,0.4
2019-02-07T04:10:27.139Z,0.4
2019-02-07T04:11:27.074Z,0.4
2019-02-07T04:12:27.051Z,0.3
2019-02-07T04:13:27.070Z,0.3
2019-02-07T04:14:27.081Z,0.3
2019-02-07T04:15:27.138Z,0.2
2019-02-07T04:16:27.078Z,0.2
2019-02-07T04:17:27.061Z,0.2
2019-02-07T04:18:27.081Z,0.2
2019-02-07T04:19:27.070Z,0.2
2019-02-07T04:20:27.125Z,0.2
2019-02-07T04:21:27.124Z,0.2
2019-02-07T04:22:27.060Z,0.1
2019-02-07T04:23:27.075Z,0.1
2019-02-07T04:24:27.140Z,0.1
2019-02-07T04:25:27.130Z,0.1
2019-02-07T04:26:27.084Z,0.1
2019-02-07T04:27:27.070Z,0.1
2019-02-07T04:28:27.067Z,0.1
2019-02-07T04:29:27.086Z,0.1
2019-02-07T04:30:27.142Z,0.1
2019-02-07T04:31:27.084Z,0.1
2019-02-07T04:32:27.077Z,0.9
2019-02-07T04:33:28.925Z,1.6
2019-02-07T04:34:28.619Z,2.4
2019-02-07T04:35:27.119Z,3.3
2019-02-07T04:36:27.060Z,4.2
2019-02-07T04:37:27.071Z,4.9
2019-02-07T04:38:27.125Z,5.2
2019-02-07T04:39:27.049Z,5.1
2019-02-07T04:40:27.127Z,5.1
2019-02-07T04:41:27.058Z,5.4
2019-02-07T04:42:27.120Z,5.7
2019-02-07T04:43:27.071Z,6.2
2019-02-07T04:44:27.046Z,6.6
2019-02-07T04:45:27.048Z,6.7
2019-02-07T04:46:27.522Z,6.5
2019-02-07T04:47:27.067Z,6.1
2019-02-07T04:48:27.064Z,5.5
2019-02-07T04:49:27.054Z,4.9
2019-02-07T04:50:27.035Z,4.5
2019-02-07T04:51:27.124Z,4.1
2019-02-07T04:52:27.119Z,3.7
2019-02-07T04:53:27.045Z,3.3
2019-02-07T04:54:27.135Z,3
2019-02-07T04:55:27.048Z,2.7
2019-02-07T04:56:27.053Z,2.5
2019-02-07T04:57:27.057Z,2.2
2019-02-07T04:58:27.065Z,2
2019-02-07T04:59:27.127Z,1.8
2019-02-07T05:00:27.118Z,1.6
2019-02-07T05:01:27.045Z,1.5
2019-02-07T05:02:27.072Z,1.3
2019-02-07T05:03:27.055Z,1.2
2019-02-07T05:04:27.114Z,1.6
2019-02-07T05:05:27.112Z,2.2
2019-02-07T05:06:27.049Z,2.7
2019-02-07T05:07:27.054Z,3.1
2019-02-07T05:08:27.064Z,3.4
2019-02-07T05:09:27.100Z,3.6
2019-02-07T05:10:27.115Z,3.9
2019-02-07T05:11:27.106Z,4.2
2019-02-07T05:12:27.103Z,4.3
2019-02-07T05:13:27.064Z,4.2
2019-02-07T05:14:27.040Z,4.1
2019-02-07T05:15:27.039Z,3.8
2019-02-07T05:16:38.811Z,3.5
2019-02-07T05:17:27.099Z,3.7
2019-02-07T05:18:27.093Z,4.4
2019-02-07T05:19:27.048Z,5.1
2019-02-07T05:20:27.059Z,5.6
2019-02-07T05:21:27.039Z,6
2019-02-07T05:22:27.115Z,6
2019-02-07T05:23:27.035Z,6.2
2019-02-07T05:24:27.142Z,6.5
2019-02-07T05:25:27.396Z,6.8
2019-02-07T05:26:27.039Z,6.9
2019-02-07T05:27:27.103Z,6.8
2019-02-07T05:28:27.075Z,6.8
2019-02-07T05:29:27.049Z,6.8
2019-02-07T05:30:27.185Z,6.8
2019-02-07T05:31:27.023Z,6.5
2019-02-07T05:32:27.114Z,6.3
2019-02-07T05:33:27.052Z,6.1
2019-02-07T05:34:27.024Z,5.7
2019-02-07T05:35:27.082Z,5.3
2019-02-07T05:36:27.082Z,4.9
2019-02-07T05:37:27.012Z,4.5
2019-02-07T05:38:27.032Z,4
2019-02-07T05:39:27.099Z,3.6
2019-02-07T05:40:27.038Z,3.3
2019-02-07T05:41:27.034Z,3
2019-02-07T05:42:27.082Z,2.9
2019-02-07T05:43:27.103Z,3
2019-02-07T05:44:27.133Z,3.1
2019-02-07T05:45:27.011Z,3.2
2019-02-07T05:46:27.079Z,3.4
2019-02-07T05:47:27.015Z,3.7
2019-02-07T05:48:27.090Z,4.5
2019-02-07T05:49:27.021Z,5.9
2019-02-07T05:50:27.012Z,6.4
2019-02-07T05:51:27.027Z,6.6
2019-02-07T05:52:27.018Z,7.6
2019-02-07T05:53:27.072Z,8.7
2019-02-07T05:54:27.031Z,9.6
2019-02-07T05:55:27.016Z,10.1
2019-02-07T05:56:27.072Z,10.4
2019-02-07T05:57:27.032Z,11
2019-02-07T05:58:27.115Z,11.6
2019-02-07T05:59:27.119Z,12.3
2019-02-07T06:00:27.026Z,13.2
2019-02-07T06:01:27.012Z,13.7
2019-02-07T06:02:27.036Z,13.9
2019-02-07T06:03:27.034Z,13.9
2019-02-07T06:04:31.797Z,14
2019-02-07T06:05:27.048Z,14.3
2019-02-07T06:06:27.031Z,14.7
2019-02-07T06:07:27.029Z,14.8
2019-02-07T06:08:27.020Z,14.9
2019-02-07T06:09:27.085Z,15.2
2019-02-07T06:10:27.022Z,15.6
2019-02-07T06:11:27.098Z,16.4
2019-02-07T06:12:27.072Z,16.7
2019-02-07T06:13:27.088Z,16.8
2019-02-07T06:14:27.099Z,16.8
2019-02-07T06:15:27.035Z,16.9
2019-02-07T06:16:27.029Z,16.9
2019-02-07T06:17:27.007Z,16.9
2019-02-07T06:18:27.086Z,16.5
2019-02-07T06:19:27.032Z,16
2019-02-07T06:20:27.019Z,15.3
2019-02-07T06:21:27.130Z,14.6
2019-02-07T06:22:27.034Z,13.7
2019-02-07T06:23:26.996Z,12.4
2019-02-07T06:24:27.011Z,11.2
2019-02-07T06:25:27.055Z,10.1
2019-02-07T06:26:27.030Z,9.2
2019-02-07T06:27:27.123Z,8.3
2019-02-07T06:28:26.995Z,7.9
2019-02-07T06:29:27.017Z,8
2019-02-07T06:30:27.024Z,8.1
2019-02-07T06:31:27.000Z,8.5
2019-02-07T06:32:27.086Z,8.8
2019-02-07T06:33:26.999Z,8.7
2019-02-07T06:34:28.842Z,8.5
2019-02-07T06:35:27.008Z,8.3
2019-02-07T06:36:27.025Z,8.2
2019-02-07T06:37:27.015Z,7.8
2019-02-07T06:38:27.015Z,7.7
2019-02-07T06:39:28.481Z,7.4
2019-02-07T06:40:27.010Z,7.1
2019-02-07T06:41:27.010Z,6.6
2019-02-07T06:42:27.008Z,6.4
2019-02-07T06:43:27.082Z,6.1
2019-02-07T06:44:26.998Z,5.5
2019-02-07T06:45:27.007Z,5
2019-02-07T06:46:26.996Z,4.6
2019-02-07T06:47:27.005Z,4.2
2019-02-07T06:48:27.055Z,4.2
2019-02-07T06:49:27.007Z,3.9
2019-02-07T06:50:27.069Z,3.9
2019-02-07T06:51:27.001Z,3.7
2019-02-07T06:52:27.075Z,3.5
2019-02-07T06:53:27.005Z,3.2
2019-02-07T06:54:27.019Z,2.9
2019-02-07T06:55:27.102Z,2.6
2019-02-07T06:56:26.988Z,2.4
2019-02-07T06:57:27.003Z,2.1
2019-02-07T06:58:27.006Z,1.9
2019-02-07T06:59:27.014Z,2
2019-02-07T07:00:27.058Z,2.3
2019-02-07T07:01:27.074Z,2.6
2019-02-07T07:02:27.013Z,2.9
2019-02-07T07:03:26.993Z,3.3
2019-02-07T07:04:27.012Z,3.5
2019-02-07T07:05:26.996Z,3.4
2019-02-07T07:06:27.047Z,3.1
2019-02-07T07:07:26.969Z,3.3
2019-02-07T07:08:26.995Z,3.9
2019-02-07T07:09:27.005Z,4.6
2019-02-07T07:10:26.999Z,5.3
2019-02-07T07:11:27.009Z,5.9
2019-02-07T07:12:27.034Z,6.3
2019-02-07T07:13:26.995Z,6.6
2019-02-07T07:14:26.983Z,6.8
2019-02-07T07:15:26.990Z,6.6
2019-02-07T07:16:27.067Z,6.2
2019-02-07T07:17:27.270Z,5.7
2019-02-07T07:18:26.996Z,5.1
2019-02-07T07:19:26.979Z,4.6
2019-02-07T07:20:27.040Z,4.7
2019-02-07T07:21:26.991Z,4.8
2019-02-07T07:22:26.991Z,5
2019-02-07T07:23:27.056Z,5.3
2019-02-07T07:24:26.990Z,5.5
2019-02-07T07:25:27.000Z,5.5
2019-02-07T07:26:27.011Z,5.6
2019-02-07T07:27:27.065Z,6.2
2019-02-07T07:28:26.966Z,7.2
2019-02-07T07:29:26.972Z,8.1
2019-02-07T07:30:26.997Z,9.1
2019-02-07T07:31:26.979Z,9.8
2019-02-07T07:32:27.048Z,10.1
2019-02-07T07:33:26.964Z,10.4
2019-02-07T07:34:26.996Z,10.7
2019-02-07T07:35:27.052Z,10.9
2019-02-07T07:36:26.992Z,10.6
2019-02-07T07:37:26.994Z,9.8
2019-02-07T07:38:26.979Z,9.3
2019-02-07T07:39:27.032Z,8.7
2019-02-07T07:40:26.978Z,7.9
2019-02-07T07:41:26.969Z,7.1
2019-02-07T07:42:26.976Z,6.4
2019-02-07T07:43:26.993Z,5.8
2019-02-07T07:44:27.055Z,5.3
2019-02-07T07:45:26.973Z,4.8
2019-02-07T07:46:26.991Z,4.5
2019-02-07T07:47:35.642Z,4.1
2019-02-07T07:48:26.980Z,4.1
2019-02-07T07:49:27.051Z,4.1
2019-02-07T07:50:26.966Z,4.2
2019-02-07T07:51:26.998Z,4.4
2019-02-07T07:52:26.971Z,4.5
2019-02-07T07:53:26.973Z,4.8
2019-02-07T07:54:27.031Z,5
2019-02-07T07:55:27.033Z,4.9
2019-02-07T07:56:26.957Z,4.6
2019-02-07T07:57:26.959Z,4.1
2019-02-07T07:58:26.965Z,3.7
2019-02-07T07:59:27.554Z,3.4
2019-02-07T08:00:26.989Z,3.1
2019-02-07T08:01:27.030Z,2.8
2019-02-07T08:02:26.969Z,2.5
2019-02-07T08:03:26.985Z,2.3
2019-02-07T08:04:26.958Z,2.1
2019-02-07T08:05:27.030Z,2.2
2019-02-07T08:06:26.963Z,2.4
2019-02-07T08:07:27.030Z,2.5
2019-02-07T08:08:26.968Z,3
2019-02-07T08:09:26.959Z,3.6
2019-02-07T08:10:26.967Z,4.2
2019-02-07T08:11:26.966Z,4.6
2019-02-07T08:12:27.025Z,5.1
2019-02-07T08:13:26.955Z,5.5
2019-02-07T08:14:26.970Z,5.7
2019-02-07T08:15:26.953Z,5.8
2019-02-07T08:16:26.960Z,5.8
2019-02-07T08:17:27.000Z,5.5
2019-02-07T08:18:26.951Z,5
2019-02-07T08:19:27.011Z,4.6
2019-02-07T08:20:26.961Z,4.3
2019-02-07T08:21:26.961Z,4.4
2019-02-07T08:22:26.960Z,4.9
2019-02-07T08:23:27.027Z,5.2
2019-02-07T08:24:26.972Z,5.3
2019-02-07T08:25:26.964Z,5.2
2019-02-07T08:26:26.997Z,5.3
2019-02-07T08:27:26.942Z,5.4
2019-02-07T08:28:27.017Z,5.5
2019-02-07T08:29:26.966Z,5.7
2019-02-07T08:30:36.153Z,5.7
2019-02-07T08:31:26.953Z,5.6
2019-02-07T08:32:26.959Z,5.8
2019-02-07T08:33:26.999Z,5.7
2019-02-07T08:34:26.947Z,5.5
2019-02-07T08:35:26.946Z,5.6
2019-02-07T08:36:26.949Z,5.5
2019-02-07T08:37:26.957Z,5.9
2019-02-07T08:38:27.004Z,5.9
2019-02-07T08:39:27.011Z,5.7
2019-02-07T08:40:26.964Z,5.6
2019-02-07T08:41:26.951Z,5.7
2019-02-07T08:42:26.946Z,5.9
2019-02-07T08:43:26.958Z,6.4
2019-02-07T08:44:27.003Z,6.9
2019-02-07T08:45:26.939Z,7.1
2019-02-07T08:46:26.950Z,7.4
2019-02-07T08:47:26.955Z,7.3
2019-02-07T08:48:26.928Z,6.8
2019-02-07T08:49:27.010Z,6.2
2019-02-07T08:50:26.921Z,5.6
2019-02-07T08:51:26.945Z,5.1
2019-02-07T08:52:26.939Z,4.7
2019-02-07T08:53:26.950Z,4.5
2019-02-07T08:54:27.018Z,4.1
2019-02-07T08:55:26.940Z,3.7
2019-02-07T08:56:26.951Z,3.3
2019-02-07T08:57:26.947Z,3
2019-02-07T08:58:27.022Z,2.7
2019-02-07T08:59:26.933Z,2.5
2019-02-07T09:00:26.935Z,2.2
2019-02-07T09:01:26.921Z,2
2019-02-07T09:02:26.944Z,1.8
2019-02-07T09:03:27.006Z,2.2
2019-02-07T09:04:26.938Z,2.5
2019-02-07T09:05:26.944Z,2.5
2019-02-07T09:06:26.927Z,2.3
2019-02-07T09:07:27.078Z,2.1
2019-02-07T09:08:26.941Z,1.9
2019-02-07T09:09:26.925Z,1.7
2019-02-07T09:10:26.965Z,1.5
2019-02-07T09:11:26.929Z,1.4
2019-02-07T09:12:26.919Z,1.3
2019-02-07T09:13:26.928Z,1.1
2019-02-07T09:14:26.935Z,1
2019-02-07T09:15:26.996Z,0.9
2019-02-07T09:16:26.929Z,0.8
2019-02-07T09:17:26.977Z,0.8
2019-02-07T09:18:26.934Z,0.7
2019-02-07T09:19:26.922Z,0.6
2019-02-07T09:20:26.933Z,0.6
2019-02-07T09:21:26.981Z,0.5
2019-02-07T09:22:26.976Z,0.5
2019-02-07T09:23:26.917Z,0.4
2019-02-07T09:24:26.915Z,0.4
2019-02-07T09:25:26.936Z,0.3
2019-02-07T09:26:26.928Z,0.3
2019-02-07T09:27:27.048Z,0.3
2019-02-07T09:28:26.905Z,0.3
2019-02-07T09:29:26.935Z,0.2
2019-02-07T09:30:27.019Z,0.2
2019-02-07T09:31:26.921Z,0.2
2019-02-07T09:32:26.928Z,0.2
2019-02-07T09:33:27.006Z,0.2
2019-02-07T09:34:26.918Z,0.1
2019-02-07T09:35:26.987Z,0.1
2019-02-07T09:36:26.933Z,0.1
2019-02-07T09:37:26.924Z,0.1
2019-02-07T09:38:26.930Z,0.1
2019-02-07T09:39:26.917Z,0.1
2019-02-07T09:40:26.995Z,0.1
2019-02-07T09:41:26.905Z,0.1
2019-02-07T09:42:26.923Z,0.1
2019-02-07T09:43:26.914Z,0.1
2019-02-07T09:44:26.990Z,0.1
2019-02-07T09:45:26.928Z,0.1
2019-02-07T09:46:26.912Z,0.2
2019-02-07T09:47:26.907Z,0.2
2019-02-07T09:48:26.943Z,0.2
2019-02-07T09:49:26.984Z,0.2
2019-02-07T09:50:26.908Z,0.2
2019-02-07T09:51:26.926Z,0.1
2019-02-07T09:52:26.928Z,0.1
2019-02-07T09:53:26.934Z,0.1
2019-02-07T09:54:26.966Z,0.1
2019-02-07T09:55:26.899Z,0.1
2019-02-07T09:56:26.977Z,0.1
2019-02-07T09:57:26.913Z,0.1
2019-02-07T09:58:26.917Z,0.1
2019-02-07T09:59:27.023Z,0.1
2019-02-07T10:00:26.907Z,0.2
2019-02-07T10:01:26.948Z,0.5
2019-02-07T10:02:26.921Z,0.7
2019-02-07T10:03:26.908Z,0.8
2019-02-07T10:04:26.909Z,1
2019-02-07T10:05:26.907Z,1.2
2019-02-07T10:06:26.963Z,1.3
2019-02-07T10:07:26.910Z,1.8
2019-02-07T10:08:26.913Z,2
2019-02-07T10:09:26.919Z,2.5
2019-02-07T10:10:26.986Z,2.6
2019-02-07T10:11:26.888Z,2.9
2019-02-07T10:12:26.878Z,2.9
2019-02-07T10:13:26.916Z,2.6
2019-02-07T10:14:26.919Z,2.4
2019-02-07T10:15:26.964Z,2.2
2019-02-07T10:16:26.892Z,2.2
2019-02-07T10:17:26.877Z,2.2
2019-02-07T10:18:32.903Z,2.1
2019-02-07T10:19:26.905Z,2.5
2019-02-07T10:20:26.907Z,2.6
2019-02-07T10:21:26.982Z,2.4
2019-02-07T10:22:26.887Z,2.5
2019-02-07T10:23:26.907Z,2.3
2019-02-07T10:24:26.909Z,2.1
2019-02-07T10:25:26.898Z,1.9
2019-02-07T10:26:26.975Z,1.7
2019-02-07T10:27:26.896Z,1.7
2019-02-07T10:28:26.945Z,1.9
2019-02-07T10:29:26.898Z,2.8
2019-02-07T10:30:26.901Z,3.5
2019-02-07T10:31:26.904Z,3.9
2019-02-07T10:32:26.957Z,4.2
2019-02-07T10:33:26.881Z,4.5
2019-02-07T10:34:26.878Z,5
2019-02-07T10:35:26.908Z,4.7
2019-02-07T10:36:26.952Z,4.9
2019-02-07T10:37:26.895Z,5.3
2019-02-07T10:38:26.961Z,5.6
2019-02-07T10:39:28.660Z,6
2019-02-07T10:40:26.895Z,6.1
2019-02-07T10:41:26.905Z,6.3
2019-02-07T10:42:26.891Z,6.4
2019-02-07T10:43:26.907Z,6.7
2019-02-07T10:44:26.932Z,7
2019-02-07T10:45:26.985Z,7.4
2019-02-07T10:46:26.903Z,7.6
2019-02-07T10:47:27.109Z,8
2019-02-07T10:48:26.890Z,8
2019-02-07T10:49:26.895Z,8.1
2019-02-07T10:50:26.878Z,8.7
2019-02-07T10:51:26.883Z,8.4
2019-02-07T10:52:26.958Z,8.5
2019-02-07T10:53:26.904Z,8.2
2019-02-07T10:54:26.888Z,8
2019-02-07T10:55:26.901Z,8.6
2019-02-07T10:56:26.897Z,8.7
2019-02-07T10:57:26.964Z,8.9
2019-02-07T10:58:26.898Z,9.1
2019-02-07T10:59:26.886Z,9.3
2019-02-07T11:00:26.883Z,9.5
2019-02-07T11:01:26.924Z,9.8
2019-02-07T11:02:26.971Z,9.6
2019-02-07T11:03:26.902Z,10.1
2019-02-07T11:04:26.884Z,10.1
2019-02-07T11:05:26.880Z,10.2
2019-02-07T11:06:26.948Z,10.3
2019-02-07T11:07:26.894Z,10.5
2019-02-07T11:08:26.891Z,10.5
2019-02-07T11:09:26.896Z,10.7
2019-02-07T11:10:26.891Z,10.9
2019-02-07T11:11:26.953Z,10.5
2019-02-07T11:12:26.876Z,10.3
2019-02-07T11:13:26.896Z,10.3
2019-02-07T11:14:26.934Z,10.4
2019-02-07T11:15:26.880Z,10.3
2019-02-07T11:16:26.962Z,10.4
2019-02-07T11:17:26.873Z,10.5
2019-02-07T11:18:26.886Z,11.1
2019-02-07T11:19:26.900Z,11.1
2019-02-07T11:20:26.881Z,12
2019-02-07T11:21:26.947Z,12.1
2019-02-07T11:22:26.868Z,12.1
2019-02-07T11:23:26.951Z,12.4
2019-02-07T11:24:26.880Z,12.4
2019-02-07T11:25:26.880Z,12.5
2019-02-07T11:26:26.880Z,12.5
2019-02-07T11:27:26.927Z,12.6
2019-02-07T11:28:26.882Z,12.7
2019-02-07T11:29:26.923Z,12.4
2019-02-07T11:30:26.941Z,12.2
2019-02-07T11:31:26.878Z,11.7
2019-02-07T11:32:26.880Z,11.5
2019-02-07T11:33:26.900Z,11.1
2019-02-07T11:34:26.917Z,10.8
2019-02-07T11:35:26.876Z,10.8
2019-02-07T11:36:26.875Z,10.8
2019-02-07T11:37:26.948Z,10.6
2019-02-07T11:38:26.863Z,10.2
2019-02-07T11:39:29.466Z,9.9
2019-02-07T11:40:26.870Z,9.2
2019-02-07T11:41:26.928Z,9.1
2019-02-07T11:42:26.856Z,9.8
2019-02-07T11:43:26.886Z,10.6
2019-02-07T11:44:26.932Z,11.4
2019-02-07T11:45:26.888Z,11.7
2019-02-07T11:46:26.870Z,11.2
2019-02-07T11:47:26.871Z,10.4
2019-02-07T11:48:26.889Z,9.9
2019-02-07T11:49:26.952Z,9.2
2019-02-07T11:50:26.863Z,8.7
2019-02-07T11:51:26.862Z,8.2
2019-02-07T11:52:26.879Z,7.6
2019-02-07T11:53:26.936Z,6.9
2019-02-07T11:54:26.922Z,7
2019-02-07T11:55:26.845Z,6.7
2019-02-07T11:56:26.945Z,6.3
2019-02-07T11:57:26.880Z,7.1
2019-02-07T11:58:27.512Z,8.1
2019-02-07T11:59:26.860Z,8.8
2019-02-07T12:00:26.869Z,9.7
2019-02-07T12:01:26.940Z,10.1
2019-02-07T12:02:26.858Z,10.6
2019-02-07T12:03:26.862Z,11.2
2019-02-07T12:04:26.842Z,11.1
2019-02-07T12:05:26.886Z,11.5
2019-02-07T12:06:26.951Z,12.5
2019-02-07T12:07:26.863Z,12.3
2019-02-07T12:08:26.895Z,12.3
2019-02-07T12:09:26.947Z,12.5
2019-02-07T12:10:26.967Z,13.1
2019-02-07T12:11:26.847Z,13.8
2019-02-07T12:12:26.840Z,14.6
2019-02-07T12:13:28.296Z,16.2
2019-02-07T12:14:27.136Z,17.5
2019-02-07T12:15:26.943Z,18.9
2019-02-07T12:16:26.900Z,19.6
2019-02-07T12:17:26.912Z,20.7
2019-02-07T12:18:26.870Z,21.8
2019-02-07T12:19:26.880Z,22.1
2019-02-07T12:20:26.873Z,22.2
2019-02-07T12:21:26.861Z,23.3
2019-02-07T12:22:26.870Z,24.5
2019-02-07T12:23:26.933Z,24.6
2019-02-07T12:24:26.993Z,24.8
2019-02-07T12:25:29.327Z,25.7
2019-02-07T12:26:26.876Z,26.1
2019-02-07T12:27:26.956Z,26.6
2019-02-07T12:28:26.880Z,27.1
2019-02-07T12:29:26.938Z,27.1
2019-02-07T12:30:26.903Z,27.9
2019-02-07T12:31:26.913Z,27.9
2019-02-07T12:32:26.870Z,27.9
2019-02-07T12:33:26.835Z,27.7
2019-02-07T12:34:26.926Z,27.4
2019-02-07T12:35:26.864Z,26.9
2019-02-07T12:36:26.860Z,26.2
2019-02-07T12:37:26.844Z,25.4
2019-02-07T12:38:26.852Z,24.5
2019-02-07T12:39:26.881Z,23.7
2019-02-07T12:40:26.859Z,22.2
2019-02-07T12:41:26.846Z,21
2019-02-07T12:42:26.917Z,20.2
2019-02-07T12:43:26.848Z,19.4
2019-02-07T12:44:27.446Z,18.6
2019-02-07T12:45:26.852Z,18.1
2019-02-07T12:46:26.832Z,17.2
2019-02-07T12:47:26.912Z,17.6
2019-02-07T12:48:26.852Z,16.8
2019-02-07T12:49:29.070Z,16.5
2019-02-07T12:50:26.856Z,16.5
2019-02-07T12:51:26.843Z,15.9
2019-02-07T12:52:26.839Z,15.1
2019-02-07T12:53:26.898Z,14.1
2019-02-07T12:54:26.829Z,13.9
2019-02-07T12:55:26.956Z,13.3
2019-02-07T12:56:26.907Z,12.6
2019-02-07T12:57:26.830Z,11.9
2019-02-07T12:58:26.837Z,11.8
2019-02-07T12:59:26.908Z,11.4
2019-02-07T13:00:26.827Z,11.4
2019-02-07T13:01:26.843Z,10.9
2019-02-07T13:02:26.842Z,11.3
2019-02-07T13:03:26.824Z,11.6
2019-02-07T13:04:26.889Z,11.3
2019-02-07T13:05:26.840Z,11
2019-02-07T13:06:26.825Z,10.5
2019-02-07T13:07:26.826Z,10
2019-02-07T13:08:26.838Z,10.3
2019-02-07T13:09:26.908Z,11.3
2019-02-07T13:10:26.832Z,11.6
2019-02-07T13:11:26.836Z,11.6
2019-02-07T13:12:26.920Z,11.7
2019-02-07T13:13:26.845Z,11.9
2019-02-07T13:14:26.877Z,12.3
2019-02-07T13:15:26.836Z,12.2
2019-02-07T13:16:26.909Z,11.7
2019-02-07T13:17:26.827Z,11.3
2019-02-07T13:18:26.958Z,11.5
2019-02-07T13:19:26.921Z,12
2019-02-07T13:20:26.857Z,12.8
2019-02-07T13:21:26.926Z,13.2
2019-02-07T13:22:26.824Z,13.4
2019-02-07T13:23:26.829Z,13.9
2019-02-07T13:24:26.887Z,13.7
2019-02-07T13:25:26.825Z,13.5
2019-02-07T13:26:26.950Z,13.2
2019-02-07T13:27:26.841Z,12.3
2019-02-07T13:28:26.823Z,11.9
2019-02-07T13:29:26.842Z,11.9
2019-02-07T13:30:26.859Z,11.9
2019-02-07T13:31:26.881Z,12.1
2019-02-07T13:32:26.830Z,12.3
2019-02-07T13:33:26.883Z,12.4
2019-02-07T13:34:26.815Z,12.4
2019-02-07T13:35:26.926Z,12.8
2019-02-07T13:36:26.822Z,13.2
2019-02-07T13:37:26.902Z,13.4
2019-02-07T13:38:26.843Z,13.9
2019-02-07T13:39:26.879Z,13.9
2019-02-07T13:40:26.818Z,14.2
2019-02-07T13:41:26.833Z,15.1
2019-02-07T13:42:26.883Z,15.2
2019-02-07T13:43:26.827Z,15.5
2019-02-07T13:44:26.879Z,15.6